sensor_id;sensor_type;location;lat;lon;timestamp;pressure;altitude;pressure_sealevel;temperature;humidity
35758;BME280;21879;50.110;18.900;2023-04-04T00:01:09;99334.55;;;1.66;54.64
35758;BME280;21879;50.110;18.900;2023-04-04T00:11:35;99339.40;;;1.49;54.96
35758;BME280;21879;50.110;18.900;2023-04-04T00:22:01;99327.90;;;1.39;55.44
35758;BME280;21879;50.110;18.900;2023-04-04T00:32:27;99319.48;;;1.33;55.33
35758;BME280;21879;50.110;18.900;2023-04-04T00:42:53;99316.73;;;1.29;55.97
35758;BME280;21879;50.110;18.900;2023-04-04T00:53:21;99313.11;;;1.24;56.06
35758;BME280;21879;50.110;18.900;2023-04-04T01:03:47;99321.73;;;1.21;56.29
35758;BME280;21879;50.110;18.900;2023-04-04T01:14:13;99328.45;;;1.16;56.37
35758;BME280;21879;50.110;18.900;2023-04-04T01:24:41;99334.04;;;1.15;56.40
35758;BME280;21879;50.110;18.900;2023-04-04T01:35:15;99331.13;;;1.10;56.48
35758;BME280;21879;50.110;18.900;2023-04-04T01:45:44;99332.95;;;0.96;56.44
35758;BME280;21879;50.110;18.900;2023-04-04T01:56:11;99330.77;;;0.80;56.96
35758;BME280;21879;50.110;18.900;2023-04-04T02:06:36;99333.60;;;0.64;57.10
35758;BME280;21879;50.110;18.900;2023-04-04T02:17:03;99338.84;;;0.45;57.52
35758;BME280;21879;50.110;18.900;2023-04-04T02:27:29;99340.02;;;0.33;57.92
35758;BME280;21879;50.110;18.900;2023-04-04T02:37:55;99339.16;;;0.24;58.08
35758;BME280;21879;50.110;18.900;2023-04-04T02:48:21;99343.60;;;0.24;58.26
35758;BME280;21879;50.110;18.900;2023-04-04T02:58:49;99342.40;;;0.24;58.52
35758;BME280;21879;50.110;18.900;2023-04-04T03:09:15;99346.80;;;0.19;58.61
35758;BME280;21879;50.110;18.900;2023-04-04T03:19:40;99347.10;;;0.01;58.72
35758;BME280;21879;50.110;18.900;2023-04-04T03:30:08;99340.75;;;-0.11;59.00
35758;BME280;21879;50.110;18.900;2023-04-04T03:40:34;99342.67;;;-0.18;59.20
35758;BME280;21879;50.110;18.900;2023-04-04T03:51:04;99337.01;;;-0.26;59.35
35758;BME280;21879;50.110;18.900;2023-04-04T04:01:31;99336.64;;;-0.23;59.73
35758;BME280;21879;50.110;18.900;2023-04-04T04:11:57;99333.98;;;-0.13;59.72
35758;BME280;21879;50.110;18.900;2023-04-04T04:22:23;99334.95;;;-0.23;59.70
35758;BME280;21879;50.110;18.900;2023-04-04T04:32:50;99335.23;;;-0.32;59.83
35758;BME280;21879;50.110;18.900;2023-04-04T04:43:17;99331.83;;;-0.35;59.71
35758;BME280;21879;50.110;18.900;2023-04-04T04:53:43;99333.45;;;-0.41;59.90
35758;BME280;21879;50.110;18.900;2023-04-04T05:04:09;99335.73;;;-0.40;59.94
35758;BME280;21879;50.110;18.900;2023-04-04T05:14:36;99338.29;;;-0.37;60.21
35758;BME280;21879;50.110;18.900;2023-04-04T05:25:03;99343.75;;;-0.21;60.27
35758;BME280;21879;50.110;18.900;2023-04-04T05:35:29;99341.42;;;-0.19;59.93
35758;BME280;21879;50.110;18.900;2023-04-04T05:45:55;99344.48;;;-0.23;59.94
35758;BME280;21879;50.110;18.900;2023-04-04T05:56:21;99350.14;;;-0.23;59.88
35758;BME280;21879;50.110;18.900;2023-04-04T06:06:48;99354.98;;;-0.26;59.39
35758;BME280;21879;50.110;18.900;2023-04-04T06:17:15;99347.73;;;-0.12;59.15
35758;BME280;21879;50.110;18.900;2023-04-04T06:27:41;99348.59;;;-0.04;58.63
35758;BME280;21879;50.110;18.900;2023-04-04T06:38:07;99349.25;;;0.08;58.47
35758;BME280;21879;50.110;18.900;2023-04-04T06:48:33;99352.55;;;0.38;57.57
35758;BME280;21879;50.110;18.900;2023-04-04T06:58:59;99351.67;;;0.54;57.46
35758;BME280;21879;50.110;18.900;2023-04-04T07:09:26;99345.98;;;1.00;56.44
35758;BME280;21879;50.110;18.900;2023-04-04T07:19:53;99347.58;;;1.24;55.56
35758;BME280;21879;50.110;18.900;2023-04-04T07:30:19;99342.29;;;1.52;55.32
35758;BME280;21879;50.110;18.900;2023-04-04T07:40:50;99342.22;;;1.65;53.92
35758;BME280;21879;50.110;18.900;2023-04-04T07:51:16;99334.34;;;1.75;53.91
35758;BME280;21879;50.110;18.900;2023-04-04T08:01:47;99325.06;;;2.24;53.97
35758;BME280;21879;50.110;18.900;2023-04-04T08:12:13;99330.52;;;2.28;52.70
35758;BME280;21879;50.110;18.900;2023-04-04T08:22:39;99324.98;;;2.21;52.18
35758;BME280;21879;50.110;18.900;2023-04-04T08:33:05;99324.14;;;2.27;51.96
35758;BME280;21879;50.110;18.900;2023-04-04T08:43:33;99328.43;;;2.22;50.75
35758;BME280;21879;50.110;18.900;2023-04-04T08:54:02;99311.23;;;2.21;50.73
35758;BME280;21879;50.110;18.900;2023-04-04T09:04:29;99303.09;;;2.23;48.84
35758;BME280;21879;50.110;18.900;2023-04-04T09:14:57;99297.06;;;2.49;49.33
35758;BME280;21879;50.110;18.900;2023-04-04T09:25:24;99292.08;;;2.65;49.13
35758;BME280;21879;50.110;18.900;2023-04-04T09:35:55;99287.30;;;3.00;49.58
35758;BME280;21879;50.110;18.900;2023-04-04T09:46:22;99294.29;;;3.04;48.68
35758;BME280;21879;50.110;18.900;2023-04-04T09:56:52;99300.60;;;3.02;48.66
35758;BME280;21879;50.110;18.900;2023-04-04T10:07:17;99296.40;;;3.17;48.56
35758;BME280;21879;50.110;18.900;2023-04-04T10:17:44;99287.83;;;3.35;48.56
35758;BME280;21879;50.110;18.900;2023-04-04T10:28:10;99281.70;;;3.38;47.25
35758;BME280;21879;50.110;18.900;2023-04-04T10:38:41;99273.70;;;3.35;46.60
35758;BME280;21879;50.110;18.900;2023-04-04T10:49:08;99272.50;;;3.41;47.04
35758;BME280;21879;50.110;18.900;2023-04-04T11:00:00;99272.15;;;3.28;45.46
35758;BME280;21879;50.110;18.900;2023-04-04T11:10:29;99261.31;;;3.40;46.02
35758;BME280;21879;50.110;18.900;2023-04-04T11:20:56;99257.63;;;3.56;46.77
35758;BME280;21879;50.110;18.900;2023-04-04T11:31:32;99247.45;;;3.81;46.80
35758;BME280;21879;50.110;18.900;2023-04-04T11:42:03;99238.70;;;3.81;46.47
35758;BME280;21879;50.110;18.900;2023-04-04T11:52:35;99233.71;;;4.02;47.28
35758;BME280;21879;50.110;18.900;2023-04-04T12:03:01;99234.15;;;3.99;46.31
35758;BME280;21879;50.110;18.900;2023-04-04T12:13:31;99234.60;;;4.17;46.96
35758;BME280;21879;50.110;18.900;2023-04-04T12:23:58;99237.25;;;4.20;47.01
35758;BME280;21879;50.110;18.900;2023-04-04T12:34:27;99246.63;;;4.03;46.75
35758;BME280;21879;50.110;18.900;2023-04-04T12:45:02;99247.50;;;3.83;45.92
35758;BME280;21879;50.110;18.900;2023-04-04T12:55:31;99256.22;;;3.87;46.89
35758;BME280;21879;50.110;18.900;2023-04-04T13:05:58;99252.44;;;3.68;46.69
35758;BME280;21879;50.110;18.900;2023-04-04T13:16:32;99243.37;;;3.76;47.22
35758;BME280;21879;50.110;18.900;2023-04-04T13:26:59;99255.17;;;3.73;47.52
35758;BME280;21879;50.110;18.900;2023-04-04T13:37:25;99255.41;;;3.69;47.08
35758;BME280;21879;50.110;18.900;2023-04-04T13:47:51;99256.52;;;3.60;46.90
35758;BME280;21879;50.110;18.900;2023-04-04T13:58:17;99240.08;;;3.62;46.88
35758;BME280;21879;50.110;18.900;2023-04-04T14:08:44;99226.98;;;3.55;46.34
35758;BME280;21879;50.110;18.900;2023-04-04T14:19:10;99226.08;;;3.53;46.39
35758;BME280;21879;50.110;18.900;2023-04-04T14:29:36;99231.08;;;3.41;46.04
35758;BME280;21879;50.110;18.900;2023-04-04T14:40:02;99245.48;;;3.21;45.98
35758;BME280;21879;50.110;18.900;2023-04-04T14:50:28;99228.92;;;3.19;46.15
35758;BME280;21879;50.110;18.900;2023-04-04T15:00:54;99225.86;;;3.14;46.14
35758;BME280;21879;50.110;18.900;2023-04-04T15:11:19;99221.89;;;3.01;45.82
35758;BME280;21879;50.110;18.900;2023-04-04T15:21:45;99238.27;;;2.92;45.99
35758;BME280;21879;50.110;18.900;2023-04-04T15:32:12;99233.06;;;2.89;45.69
35758;BME280;21879;50.110;18.900;2023-04-04T15:42:38;99235.98;;;2.78;45.54
35758;BME280;21879;50.110;18.900;2023-04-04T15:53:05;99245.64;;;2.57;45.31
35758;BME280;21879;50.110;18.900;2023-04-04T16:03:30;99254.61;;;2.31;45.36
35758;BME280;21879;50.110;18.900;2023-04-04T16:13:57;99256.96;;;2.40;45.73
35758;BME280;21879;50.110;18.900;2023-04-04T16:24:24;99261.81;;;2.42;45.85
35758;BME280;21879;50.110;18.900;2023-04-04T16:34:51;99255.39;;;2.23;45.28
35758;BME280;21879;50.110;18.900;2023-04-04T16:45:18;99262.83;;;2.15;45.59
35758;BME280;21879;50.110;18.900;2023-04-04T16:55:44;99267.14;;;2.15;45.86
35758;BME280;21879;50.110;18.900;2023-04-04T17:06:11;99279.58;;;2.13;46.01
35758;BME280;21879;50.110;18.900;2023-04-04T17:16:37;99283.58;;;2.04;45.37
35758;BME280;21879;50.110;18.900;2023-04-04T17:27:03;99289.42;;;1.99;45.81
35758;BME280;21879;50.110;18.900;2023-04-04T17:37:30;99293.70;;;1.99;46.00
35758;BME280;21879;50.110;18.900;2023-04-04T17:47:56;99298.50;;;1.99;46.14
35758;BME280;21879;50.110;18.900;2023-04-04T17:58:22;99315.30;;;1.99;45.91
35758;BME280;21879;50.110;18.900;2023-04-04T18:08:49;99325.30;;;1.91;45.45
35758;BME280;21879;50.110;18.900;2023-04-04T18:19:15;99320.62;;;1.94;45.83
35758;BME280;21879;50.110;18.900;2023-04-04T18:29:41;99323.95;;;1.86;45.49
35758;BME280;21879;50.110;18.900;2023-04-04T18:40:08;99326.39;;;1.77;45.97
35758;BME280;21879;50.110;18.900;2023-04-04T18:50:34;99324.30;;;1.77;45.98
35758;BME280;21879;50.110;18.900;2023-04-04T19:01:03;99323.26;;;1.81;46.49
35758;BME280;21879;50.110;18.900;2023-04-04T19:11:30;99324.77;;;2.05;46.51
35758;BME280;21879;50.110;18.900;2023-04-04T19:21:55;99324.20;;;2.28;46.66
35758;BME280;21879;50.110;18.900;2023-04-04T19:32:23;99319.30;;;2.53;46.73
35758;BME280;21879;50.110;18.900;2023-04-04T19:42:51;99320.93;;;2.55;46.78
35758;BME280;21879;50.110;18.900;2023-04-04T19:53:22;99317.59;;;2.41;46.99
35758;BME280;21879;50.110;18.900;2023-04-04T20:03:51;99318.14;;;2.17;47.08
35758;BME280;21879;50.110;18.900;2023-04-04T20:14:20;99318.83;;;1.97;47.75
35758;BME280;21879;50.110;18.900;2023-04-04T20:24:44;99317.08;;;2.11;47.71
35758;BME280;21879;50.110;18.900;2023-04-04T20:35:25;99320.20;;;2.32;47.94
35758;BME280;21879;50.110;18.900;2023-04-04T20:45:52;99317.42;;;2.16;47.51
35758;BME280;21879;50.110;18.900;2023-04-04T20:56:43;99318.56;;;2.04;47.63
35758;BME280;21879;50.110;18.900;2023-04-04T21:07:26;99324.19;;;1.78;47.77
35758;BME280;21879;50.110;18.900;2023-04-04T21:18:00;99320.07;;;1.64;48.54
35758;BME280;21879;50.110;18.900;2023-04-04T21:28:29;99322.11;;;1.49;49.06
35758;BME280;21879;50.110;18.900;2023-04-04T21:38:56;99317.63;;;1.34;49.55
35758;BME280;21879;50.110;18.900;2023-04-04T21:49:23;99307.31;;;1.24;50.14
35758;BME280;21879;50.110;18.900;2023-04-04T21:59:49;99295.83;;;1.14;50.38
35758;BME280;21879;50.110;18.900;2023-04-04T22:10:15;99288.82;;;1.14;50.53
35758;BME280;21879;50.110;18.900;2023-04-04T22:20:42;99286.63;;;1.07;50.07
35758;BME280;21879;50.110;18.900;2023-04-04T22:31:09;99285.84;;;0.90;50.07
35758;BME280;21879;50.110;18.900;2023-04-04T22:41:34;99283.91;;;0.76;50.74
35758;BME280;21879;50.110;18.900;2023-04-04T22:52:00;99280.91;;;0.56;51.00
35758;BME280;21879;50.110;18.900;2023-04-04T23:02:31;99274.48;;;0.53;51.01
35758;BME280;21879;50.110;18.900;2023-04-04T23:12:57;99270.64;;;0.34;50.88
35758;BME280;21879;50.110;18.900;2023-04-04T23:23:22;99260.48;;;0.33;51.02
35758;BME280;21879;50.110;18.900;2023-04-04T23:33:48;99254.87;;;0.37;51.31
35758;BME280;21879;50.110;18.900;2023-04-04T23:44:14;99250.63;;;0.26;51.55
35758;BME280;21879;50.110;18.900;2023-04-04T23:54:40;99240.59;;;0.27;51.62
